Huvudsida
METAR-TAF:

METAR-TAF

Flygplatser :

Don Mueang internationella flygplats

Bangkok, Thailand

latitud: 13-54-45N, longitud: 100-36-24E, höjd: 4 m

Aktuellt väderrapport

Denna rapport gjordes för 26 minuter sedan, klockan 08:30 UTC
Vind 3 kt från nord/nordost, varierande mellan nord/nordväst och ost
Temperatur 32°C
Fuktighet 56%
Tryck 1012 hPa
Sikt 10 km eller mer
Få moln på en höjd av 3000 ft

METAR: VTBD 160830Z 03003KT 340V080 9999 FEW030 32/22 Q1012 NOSIG

Tid: 15:56 (08:56 UTC)

Väderprognos

Denna rapport gjordes för 3 timmar och 56 minuter sedan, klockan 05:00 UTC
Prognos gäller från 16 kl. 06 UTC till 17 kl. 12 UTC
Vind 10 kt från nordost
Sikt 10 km eller mer
Få moln på en höjd av 3000 ft
Blir
från 16 kl. 10 UTC till 16 kl. 12 UTC
Vind 5 kt från nord/nordväst
Blir
från 16 kl. 20 UTC till 16 kl. 22 UTC
Vind 8 kt från ost/nordost

TAF: VTBD 160500Z 1606/1712 05010KT 9999 FEW030 BECMG 1610/1612 34005KT BECMG 1620/1622 06008KT

Aktuella väderrapporter och prognoser från 4000 flygplatser (METAR- och TAF-rapporter).

De tillgängliga stationerna syns som gula och röda prickar på kartan.

För musen över prickarna för att se namnen på stationerna.

Klicka sedan för att få väderrapporter och prognoser.

För att ändra kartan: Klicka på de gröna knapparna med ett svart kors på för att zooma in; den gröna knappen med ett streck på för att zooma ut; eller på de gröna pilarna för angränsande kartor.


METAR-TAF: